Stolt Skua — ZCPQ2 — position and weather

sailwx.info

Track history (hours):
 
Tides and Currents Weather Stations Pressure Air Temp Water Temp Dewpoint Dewpoint Depression Visibility Wind Speed Wind Dir Waves Ship Positions

Stolt Skua

Last reported at 2018-Jun-23 11:06 UTC. Time now 2018-Jun-23 11:45 UTC.
Position N 29°16' W 094°41'.

Length 112 m; draft 5.8 m.

Type: Ship (hazmat cat B). MMSI: 319121000.

Date/timePositionNaut miles runAvg speedWind from/ knotsBaromVisibWave heightAir tempDewpointWater temp
2018-Jun-23 11:06N 29°16' W 094°41'0 0.4
2018-Jun-23 11:00N 29°16' W 094°40'4 6.2
2018-Jun-23 10:25N 29°18' W 094°38'511.0
2018-Jun-23 10:00N 29°21' W 094°42'510.7
2018-Jun-23 09:30N 29°22' W 094°48'610.9
2018-Jun-23 08:59N 29°27' W 094°51'711.6
2018-Jun-23 08:25N 29°33' W 094°54'511.5
2018-Jun-23 08:00N 29°37' W 094°58'3 0.1
2018-Jun-22 06:04N 29°37' W 095°01'0 0.1
2018-Jun-22 05:59N 29°37' W 095°01'1 2.6
2018-Jun-22 05:30N 29°37' W 094°60'4 7.8
2018-Jun-22 05:00N 29°35' W 094°56'613.0
2018-Jun-22 04:30N 29°29' W 094°52'713.0
2018-Jun-22 04:00N 29°23' W 094°49'511.0
2018-Jun-22 03:30N 29°21' W 094°43'611.6
2018-Jun-22 02:58N 29°18' W 094°37'4 8.1
2018-Jun-22 02:30N 29°16' W 094°40'1 1.1
2018-Jun-22 01:49N 29°16' W 094°41'0 0.0
2018-Jun-22 01:28N 29°16' W 094°41'0 0.0
2018-Jun-22 00:55N 29°16' W 094°41'0 0.0
2018-Jun-22 00:28N 29°16' W 094°41'0 0.0
2018-Jun-21 23:58N 29°16' W 094°41'0 0.0
2018-Jun-21 23:25N 29°16' W 094°41'0 0.0
2018-Jun-21 22:37N 29°16' W 094°41'0 0.0
2018-Jun-21 22:28N 29°16' W 094°41'0 0.0
2018-Jun-21 21:49N 29°16' W 094°41'0 0.0
2018-Jun-21 21:28N 29°16' W 094°41'0 0.0
2018-Jun-21 20:55N 29°16' W 094°41'0 0.0
2018-Jun-21 20:28N 29°16' W 094°41'0 0.0
2018-Jun-21 19:40N 29°16' W 094°41'0 0.0
2018-Jun-21 19:25N 29°16' W 094°41'0 0.0
2018-Jun-21 18:52N 29°16' W 094°41'0 0.0
2018-Jun-21 18:28N 29°16' W 094°41'0 0.0
2018-Jun-21 17:55N 29°16' W 094°41'0 0.0
2018-Jun-21 17:19N 29°16' W 094°41'0 0.0
2018-Jun-21 16:55N 29°16' W 094°41'0 0.0
2018-Jun-21 16:28N 29°16' W 094°41'0 0.0
2018-Jun-21 15:49N 29°16' W 094°41'0 0.0
2018-Jun-21 15:28N 29°16' W 094°41'0 0.0
2018-Jun-21 14:58N 29°16' W 094°41'0 0.0
2018-Jun-21 14:25N 29°16' W 094°41'0 0.0
2018-Jun-21 13:58N 29°16' W 094°41'0 0.0
2018-Jun-21 13:28N 29°16' W 094°41'0 0.0
2018-Jun-21 12:58N 29°16' W 094°41'0 0.0
2018-Jun-21 12:28N 29°16' W 094°41'0 0.0
2018-Jun-21 11:58N 29°16' W 094°41'0 0.0
2018-Jun-21 11:28N 29°16' W 094°41'0 0.0
2018-Jun-21 10:58N 29°16' W 094°41'0 0.0
2018-Jun-21 10:28N 29°16' W 094°41'0 0.0
2018-Jun-21 09:58N 29°16' W 094°41'0 0.0
2018-Jun-21 09:28N 29°16' W 094°41'0 0.0
2018-Jun-21 08:52N 29°16' W 094°41'0 0.0
2018-Jun-21 08:19N 29°16' W 094°41'0 0.0
2018-Jun-21 07:55N 29°16' W 094°41'0 0.0
2018-Jun-21 07:16N 29°16' W 094°41'0 0.0
2018-Jun-21 06:58N 29°16' W 094°41'0 0.0
2018-Jun-21 06:28N 29°16' W 094°41'0 0.0
2018-Jun-21 05:52N 29°16' W 094°41'0 0.0
2018-Jun-21 05:28N 29°16' W 094°41'0 0.0
2018-Jun-21 04:52N 29°16' W 094°41'0 0.0
2018-Jun-21 02:19N 29°16' W 094°41'0 0.0
2018-Jun-21 01:43N 29°16' W 094°41'0 0.0
2018-Jun-21 01:16N 29°16' W 094°41'0 0.1
2018-Jun-21 00:58N 29°16' W 094°41'0 0.0
2018-Jun-21 00:25N 29°16' W 094°41'0 0.0
2018-Jun-20 23:58N 29°16' W 094°41'0 0.0
2018-Jun-20 23:28N 29°16' W 094°41'0 0.0
2018-Jun-20 22:58N 29°16' W 094°41'0 0.1
2018-Jun-20 22:28N 29°16' W 094°41'0 0.0
2018-Jun-20 21:58N 29°16' W 094°41'0 0.0
2018-Jun-20 21:25N 29°16' W 094°41'  
2018-Jun-16 05:15N 29°19' W 094°39'310.8
2018-Jun-16 04:59N 29°21' W 094°42'1 0.2
2018-Jun-15 23:35N 29°21' W 094°43'0 0.1
2018-Jun-15 23:26N 29°21' W 094°43'0 0.0
2018-Jun-15 22:47N 29°21' W 094°43'0 0.0
2018-Jun-15 22:29N 29°21' W 094°43'0 0.0
2018-Jun-15 21:53N 29°21' W 094°43'0 0.0
2018-Jun-15 20:47N 29°21' W 094°43'0 0.0
2018-Jun-15 20:26N 29°21' W 094°43'0 0.1
2018-Jun-15 19:44N 29°21' W 094°43'0 0.3
2018-Jun-15 19:29N 29°21' W 094°43'3 5.3
2018-Jun-15 19:00N 29°21' W 094°46'4 8.6
2018-Jun-15 18:30N 29°24' W 094°49'1111.3
2018-Jun-15 17:34N 29°33' W 094°55'111.2
2018-Jun-15 17:29N 29°34' W 094°55'4 8.9
2018-Jun-15 17:00N 29°37' W 094°59'3 4.8
2018-Jun-15 16:29N 29°37' W 095°02'0 0.0
2018-Jun-15 15:59N 29°37' W 095°02'0 0.0
2018-Jun-15 15:29N 29°37' W 095°02'0 0.0
2018-Jun-15 14:59N 29°37' W 095°02'0 0.0
2018-Jun-15 14:27N 29°37' W 095°02'0 0.0
2018-Jun-15 13:43N 29°37' W 095°02'0 0.0
2018-Jun-15 13:16N 29°37' W 095°02'0 0.0
2018-Jun-15 12:48N 29°37' W 095°02'0 0.0
2018-Jun-15 12:24N 29°37' W 095°02'0 0.0
2018-Jun-15 11:05N 29°37' W 095°02'0 0.0
2018-Jun-15 09:33N 29°37' W 095°02'0 0.0
2018-Jun-15 09:28N 29°37' W 095°02'0 0.0
2018-Jun-15 08:40N 29°37' W 095°02'0 0.0
2018-Jun-15 08:11N 29°37' W 095°02'0 0.0
2018-Jun-15 07:59N 29°37' W 095°02'0 0.0
2018-Jun-15 07:29N 29°37' W 095°02'0 0.0
2018-Jun-15 07:00N 29°37' W 095°02'0 0.0
2018-Jun-15 06:23N 29°37' W 095°02'0 0.0
2018-Jun-15 05:02N 29°37' W 095°02'0 0.1
2018-Jun-15 04:59N 29°37' W 095°02'0 0.0
2018-Jun-15 04:29N 29°37' W 095°02'0 0.0
2018-Jun-15 04:00N 29°37' W 095°02'0 0.0
2018-Jun-15 03:29N 29°37' W 095°02'0 0.0
2018-Jun-15 03:00N 29°37' W 095°02'0 0.0
2018-Jun-15 02:30N 29°37' W 095°02'0 0.0
2018-Jun-15 02:00N 29°37' W 095°02'0 0.0
2018-Jun-15 01:27N 29°37' W 095°02'0 0.0
2018-Jun-15 01:00N 29°37' W 095°02'0 0.0
2018-Jun-15 00:30N 29°37' W 095°02'0 0.0
2018-Jun-14 23:53N 29°37' W 095°02'0 0.0
2018-Jun-14 23:29N 29°37' W 095°02'0 0.0
2018-Jun-14 22:59N 29°37' W 095°02'0 0.0
2018-Jun-14 22:30N 29°37' W 095°02'0 0.0
2018-Jun-14 22:00N 29°37' W 095°02'0 0.0
2018-Jun-14 21:26N 29°37' W 095°02'0 0.0
2018-Jun-14 21:00N 29°37' W 095°02'0 0.0
2018-Jun-14 20:30N 29°37' W 095°02'0 0.0
2018-Jun-14 19:59N 29°37' W 095°02'0 0.0
2018-Jun-14 19:30N 29°37' W 095°02'0 0.0
2018-Jun-14 19:00N 29°37' W 095°02'0 0.0
2018-Jun-14 18:30N 29°37' W 095°02'0 0.0
2018-Jun-14 17:59N 29°37' W 095°02'0 0.0
2018-Jun-14 17:29N 29°37' W 095°02'0 0.0
2018-Jun-14 17:00N 29°37' W 095°02'0 0.0
2018-Jun-14 04:19N 29°37' W 095°02'0 0.0
2018-Jun-14 04:00N 29°37' W 095°02'2 3.7
2018-Jun-14 03:30N 29°37' W 094°59'5 9.2
2018-Jun-14 02:58N 29°34' W 094°55'712.1
2018-Jun-14 02:24N 29°28' W 094°51'512.0
2018-Jun-14 01:58N 29°23' W 094°49'5 9.7
2018-Jun-14 01:30N 29°21' W 094°44'611.3
2018-Jun-14 01:00N 29°19' W 094°38'  
Track history (hours):
 
Tides and Currents Weather Stations Pressure Air Temp Water Temp Dewpoint Dewpoint Depression Visibility Wind Speed Wind Dir Waves Ship Positions

Stolt Skua

Last reported at 2018-Jun-23 11:06 UTC. Time now 2018-Jun-23 11:45 UTC.
Position N 29°16' W 094°41'.

Length 112 m; draft 5.8 m.

Type: Ship (hazmat cat B). MMSI: 319121000.

Date/timePositionNaut miles runAvg speedWind from/ knotsBaromVisibWave heightAir tempDewpointWater temp
2018-Jun-23 11:06N 29°16' W 094°41'0 0.4
2018-Jun-23 11:00N 29°16' W 094°40'4 6.2
2018-Jun-23 10:25N 29°18' W 094°38'511.0
2018-Jun-23 10:00N 29°21' W 094°42'510.7
2018-Jun-23 09:30N 29°22' W 094°48'610.9
2018-Jun-23 08:59N 29°27' W 094°51'711.6
2018-Jun-23 08:25N 29°33' W 094°54'511.5
2018-Jun-23 08:00N 29°37' W 094°58'3 0.1
2018-Jun-22 06:04N 29°37' W 095°01'0 0.1
2018-Jun-22 05:59N 29°37' W 095°01'1 2.6
2018-Jun-22 05:30N 29°37' W 094°60'4 7.8
2018-Jun-22 05:00N 29°35' W 094°56'613.0
2018-Jun-22 04:30N 29°29' W 094°52'713.0
2018-Jun-22 04:00N 29°23' W 094°49'511.0
2018-Jun-22 03:30N 29°21' W 094°43'611.6
2018-Jun-22 02:58N 29°18' W 094°37'4 8.1
2018-Jun-22 02:30N 29°16' W 094°40'1 1.1
2018-Jun-22 01:49N 29°16' W 094°41'0 0.0
2018-Jun-22 01:28N 29°16' W 094°41'0 0.0
2018-Jun-22 00:55N 29°16' W 094°41'0 0.0
2018-Jun-22 00:28N 29°16' W 094°41'0 0.0
2018-Jun-21 23:58N 29°16' W 094°41'0 0.0
2018-Jun-21 23:25N 29°16' W 094°41'0 0.0
2018-Jun-21 22:37N 29°16' W 094°41'0 0.0
2018-Jun-21 22:28N 29°16' W 094°41'0 0.0
2018-Jun-21 21:49N 29°16' W 094°41'0 0.0
2018-Jun-21 21:28N 29°16' W 094°41'0 0.0
2018-Jun-21 20:55N 29°16' W 094°41'0 0.0
2018-Jun-21 20:28N 29°16' W 094°41'0 0.0
2018-Jun-21 19:40N 29°16' W 094°41'0 0.0
2018-Jun-21 19:25N 29°16' W 094°41'0 0.0
2018-Jun-21 18:52N 29°16' W 094°41'0 0.0
2018-Jun-21 18:28N 29°16' W 094°41'0 0.0
2018-Jun-21 17:55N 29°16' W 094°41'0 0.0
2018-Jun-21 17:19N 29°16' W 094°41'0 0.0
2018-Jun-21 16:55N 29°16' W 094°41'0 0.0
2018-Jun-21 16:28N 29°16' W 094°41'0 0.0
2018-Jun-21 15:49N 29°16' W 094°41'0 0.0
2018-Jun-21 15:28N 29°16' W 094°41'0 0.0
2018-Jun-21 14:58N 29°16' W 094°41'0 0.0
2018-Jun-21 14:25N 29°16' W 094°41'0 0.0
2018-Jun-21 13:58N 29°16' W 094°41'0 0.0
2018-Jun-21 13:28N 29°16' W 094°41'0 0.0
2018-Jun-21 12:58N 29°16' W 094°41'0 0.0
2018-Jun-21 12:28N 29°16' W 094°41'0 0.0
2018-Jun-21 11:58N 29°16' W 094°41'0 0.0
2018-Jun-21 11:28N 29°16' W 094°41'0 0.0
2018-Jun-21 10:58N 29°16' W 094°41'0 0.0
2018-Jun-21 10:28N 29°16' W 094°41'0 0.0
2018-Jun-21 09:58N 29°16' W 094°41'0 0.0
2018-Jun-21 09:28N 29°16' W 094°41'0 0.0
2018-Jun-21 08:52N 29°16' W 094°41'0 0.0
2018-Jun-21 08:19N 29°16' W 094°41'0 0.0
2018-Jun-21 07:55N 29°16' W 094°41'0 0.0
2018-Jun-21 07:16N 29°16' W 094°41'0 0.0
2018-Jun-21 06:58N 29°16' W 094°41'0 0.0
2018-Jun-21 06:28N 29°16' W 094°41'0 0.0
2018-Jun-21 05:52N 29°16' W 094°41'0 0.0
2018-Jun-21 05:28N 29°16' W 094°41'0 0.0
2018-Jun-21 04:52N 29°16' W 094°41'0 0.0
2018-Jun-21 02:19N 29°16' W 094°41'0 0.0
2018-Jun-21 01:43N 29°16' W 094°41'0 0.0
2018-Jun-21 01:16N 29°16' W 094°41'0 0.1
2018-Jun-21 00:58N 29°16' W 094°41'0 0.0
2018-Jun-21 00:25N 29°16' W 094°41'0 0.0
2018-Jun-20 23:58N 29°16' W 094°41'0 0.0
2018-Jun-20 23:28N 29°16' W 094°41'0 0.0
2018-Jun-20 22:58N 29°16' W 094°41'0 0.1
2018-Jun-20 22:28N 29°16' W 094°41'0 0.0
2018-Jun-20 21:58N 29°16' W 094°41'0 0.0
2018-Jun-20 21:25N 29°16' W 094°41'  
2018-Jun-16 05:15N 29°19' W 094°39'310.8
2018-Jun-16 04:59N 29°21' W 094°42'1 0.2
2018-Jun-15 23:35N 29°21' W 094°43'0 0.1
2018-Jun-15 23:26N 29°21' W 094°43'0 0.0
2018-Jun-15 22:47N 29°21' W 094°43'0 0.0
2018-Jun-15 22:29N 29°21' W 094°43'0 0.0
2018-Jun-15 21:53N 29°21' W 094°43'0 0.0
2018-Jun-15 20:47N 29°21' W 094°43'0 0.0
2018-Jun-15 20:26N 29°21' W 094°43'0 0.1
2018-Jun-15 19:44N 29°21' W 094°43'0 0.3
2018-Jun-15 19:29N 29°21' W 094°43'3 5.3
2018-Jun-15 19:00N 29°21' W 094°46'4 8.6
2018-Jun-15 18:30N 29°24' W 094°49'1111.3
2018-Jun-15 17:34N 29°33' W 094°55'111.2
2018-Jun-15 17:29N 29°34' W 094°55'4 8.9
2018-Jun-15 17:00N 29°37' W 094°59'3 4.8
2018-Jun-15 16:29N 29°37' W 095°02'0 0.0
2018-Jun-15 15:59N 29°37' W 095°02'0 0.0
2018-Jun-15 15:29N 29°37' W 095°02'0 0.0
2018-Jun-15 14:59N 29°37' W 095°02'0 0.0
2018-Jun-15 14:27N 29°37' W 095°02'0 0.0
2018-Jun-15 13:43N 29°37' W 095°02'0 0.0
2018-Jun-15 13:16N 29°37' W 095°02'0 0.0
2018-Jun-15 12:48N 29°37' W 095°02'0 0.0
2018-Jun-15 12:24N 29°37' W 095°02'0 0.0
2018-Jun-15 11:05N 29°37' W 095°02'0 0.0
2018-Jun-15 09:33N 29°37' W 095°02'0 0.0
2018-Jun-15 09:28N 29°37' W 095°02'0 0.0
2018-Jun-15 08:40N 29°37' W 095°02'0 0.0
2018-Jun-15 08:11N 29°37' W 095°02'0 0.0
2018-Jun-15 07:59N 29°37' W 095°02'0 0.0
2018-Jun-15 07:29N 29°37' W 095°02'0 0.0
2018-Jun-15 07:00N 29°37' W 095°02'0 0.0
2018-Jun-15 06:23N 29°37' W 095°02'0 0.0
2018-Jun-15 05:02N 29°37' W 095°02'0 0.1
2018-Jun-15 04:59N 29°37' W 095°02'0 0.0
2018-Jun-15 04:29N 29°37' W 095°02'0 0.0
2018-Jun-15 04:00N 29°37' W 095°02'0 0.0
2018-Jun-15 03:29N 29°37' W 095°02'0 0.0
2018-Jun-15 03:00N 29°37' W 095°02'0 0.0
2018-Jun-15 02:30N 29°37' W 095°02'0 0.0
2018-Jun-15 02:00N 29°37' W 095°02'0 0.0
2018-Jun-15 01:27N 29°37' W 095°02'0 0.0
2018-Jun-15 01:00N 29°37' W 095°02'0 0.0
2018-Jun-15 00:30N 29°37' W 095°02'0 0.0
2018-Jun-14 23:53N 29°37' W 095°02'0 0.0
2018-Jun-14 23:29N 29°37' W 095°02'0 0.0
2018-Jun-14 22:59N 29°37' W 095°02'0 0.0
2018-Jun-14 22:30N 29°37' W 095°02'0 0.0
2018-Jun-14 22:00N 29°37' W 095°02'0 0.0
2018-Jun-14 21:26N 29°37' W 095°02'0 0.0
2018-Jun-14 21:00N 29°37' W 095°02'0 0.0
2018-Jun-14 20:30N 29°37' W 095°02'0 0.0
2018-Jun-14 19:59N 29°37' W 095°02'0 0.0
2018-Jun-14 19:30N 29°37' W 095°02'0 0.0
2018-Jun-14 19:00N 29°37' W 095°02'0 0.0
2018-Jun-14 18:30N 29°37' W 095°02'0 0.0
2018-Jun-14 17:59N 29°37' W 095°02'0 0.0
2018-Jun-14 17:29N 29°37' W 095°02'0 0.0
2018-Jun-14 17:00N 29°37' W 095°02'0 0.0
2018-Jun-14 04:19N 29°37' W 095°02'0 0.0
2018-Jun-14 04:00N 29°37' W 095°02'2 3.7
2018-Jun-14 03:30N 29°37' W 094°59'5 9.2
2018-Jun-14 02:58N 29°34' W 094°55'712.1
2018-Jun-14 02:24N 29°28' W 094°51'512.0
2018-Jun-14 01:58N 29°23' W 094°49'5 9.7
2018-Jun-14 01:30N 29°21' W 094°44'611.3
2018-Jun-14 01:00N 29°19' W 094°38'  

Dump ship's entire track history